sensor_id;sensor_type;location;lat;lon;timestamp;P1;durP1;ratioP1;P2;durP2;ratioP2
23747;SDS011;12054;53.662;10.126;2023-04-06T00:00:50;6.85;;;5.20;;
23747;SDS011;12054;53.662;10.126;2023-04-06T00:03:16;6.50;;;4.75;;
23747;SDS011;12054;53.662;10.126;2023-04-06T00:05:42;6.88;;;4.70;;
23747;SDS011;12054;53.662;10.126;2023-04-06T00:08:07;5.72;;;4.45;;
23747;SDS011;12054;53.662;10.126;2023-04-06T00:10:33;6.22;;;4.60;;
23747;SDS011;12054;53.662;10.126;2023-04-06T00:12:59;6.13;;;4.45;;
23747;SDS011;12054;53.662;10.126;2023-04-06T00:15:25;6.78;;;4.57;;
23747;SDS011;12054;53.662;10.126;2023-04-06T00:17:51;8.07;;;4.45;;
23747;SDS011;12054;53.662;10.126;2023-04-06T00:20:17;7.90;;;4.50;;
23747;SDS011;12054;53.662;10.126;2023-04-06T00:22:43;5.95;;;4.80;;
23747;SDS011;12054;53.662;10.126;2023-04-06T00:25:08;8.85;;;4.90;;
23747;SDS011;12054;53.662;10.126;2023-04-06T00:27:35;8.07;;;4.88;;
23747;SDS011;12054;53.662;10.126;2023-04-06T00:30:01;9.63;;;5.82;;
23747;SDS011;12054;53.662;10.126;2023-04-06T00:32:28;9.35;;;4.80;;
23747;SDS011;12054;53.662;10.126;2023-04-06T00:34:53;9.73;;;5.05;;
23747;SDS011;12054;53.662;10.126;2023-04-06T00:37:18;6.13;;;4.43;;
23747;SDS011;12054;53.662;10.126;2023-04-06T00:39:44;6.50;;;4.75;;
23747;SDS011;12054;53.662;10.126;2023-04-06T00:42:13;8.25;;;5.13;;
23747;SDS011;12054;53.662;10.126;2023-04-06T00:44:42;7.60;;;4.78;;
23747;SDS011;12054;53.662;10.126;2023-04-06T00:47:08;6.57;;;4.57;;
23747;SDS011;12054;53.662;10.126;2023-04-06T00:49:33;7.57;;;5.03;;
23747;SDS011;12054;53.662;10.126;2023-04-06T00:51:59;7.50;;;5.30;;
23747;SDS011;12054;53.662;10.126;2023-04-06T00:54:26;11.73;;;6.38;;
23747;SDS011;12054;53.662;10.126;2023-04-06T00:56:52;9.20;;;5.68;;
23747;SDS011;12054;53.662;10.126;2023-04-06T00:59:17;12.52;;;6.70;;
23747;SDS011;12054;53.662;10.126;2023-04-06T01:01:43;10.45;;;6.90;;
23747;SDS011;12054;53.662;10.126;2023-04-06T01:04:08;12.63;;;7.28;;
23747;SDS011;12054;53.662;10.126;2023-04-06T01:06:34;14.63;;;7.70;;
23747;SDS011;12054;53.662;10.126;2023-04-06T01:08:59;12.43;;;7.60;;
23747;SDS011;12054;53.662;10.126;2023-04-06T01:11:25;14.50;;;7.45;;
23747;SDS011;12054;53.662;10.126;2023-04-06T01:13:51;15.90;;;8.25;;
23747;SDS011;12054;53.662;10.126;2023-04-06T01:16:17;15.43;;;7.78;;
23747;SDS011;12054;53.662;10.126;2023-04-06T01:18:42;16.75;;;6.97;;
23747;SDS011;12054;53.662;10.126;2023-04-06T01:21:08;16.15;;;8.30;;
23747;SDS011;12054;53.662;10.126;2023-04-06T01:23:40;16.83;;;8.30;;
23747;SDS011;12054;53.662;10.126;2023-04-06T01:26:07;15.00;;;7.72;;
23747;SDS011;12054;53.662;10.126;2023-04-06T01:28:33;13.93;;;7.53;;
23747;SDS011;12054;53.662;10.126;2023-04-06T01:30:58;15.68;;;7.85;;
23747;SDS011;12054;53.662;10.126;2023-04-06T01:33:24;14.25;;;6.70;;
23747;SDS011;12054;53.662;10.126;2023-04-06T01:35:49;14.48;;;6.43;;
23747;SDS011;12054;53.662;10.126;2023-04-06T01:38:15;12.02;;;6.38;;
23747;SDS011;12054;53.662;10.126;2023-04-06T01:40:41;12.18;;;7.30;;
23747;SDS011;12054;53.662;10.126;2023-04-06T01:43:06;11.68;;;6.22;;
23747;SDS011;12054;53.662;10.126;2023-04-06T01:45:32;14.82;;;6.75;;
23747;SDS011;12054;53.662;10.126;2023-04-06T01:47:57;15.10;;;6.88;;
23747;SDS011;12054;53.662;10.126;2023-04-06T01:50:23;8.80;;;5.75;;
23747;SDS011;12054;53.662;10.126;2023-04-06T01:52:48;9.98;;;6.43;;
23747;SDS011;12054;53.662;10.126;2023-04-06T01:55:14;7.43;;;5.13;;
23747;SDS011;12054;53.662;10.126;2023-04-06T01:57:40;9.43;;;5.97;;
23747;SDS011;12054;53.662;10.126;2023-04-06T02:00:06;8.48;;;5.95;;
23747;SDS011;12054;53.662;10.126;2023-04-06T02:02:32;10.73;;;5.95;;
23747;SDS011;12054;53.662;10.126;2023-04-06T02:04:57;10.23;;;5.97;;
23747;SDS011;12054;53.662;10.126;2023-04-06T02:07:23;8.05;;;5.80;;
23747;SDS011;12054;53.662;10.126;2023-04-06T02:09:48;8.25;;;5.35;;
23747;SDS011;12054;53.662;10.126;2023-04-06T02:12:14;10.35;;;5.90;;
23747;SDS011;12054;53.662;10.126;2023-04-06T02:14:39;8.63;;;5.40;;
23747;SDS011;12054;53.662;10.126;2023-04-06T02:17:05;6.22;;;4.85;;
23747;SDS011;12054;53.662;10.126;2023-04-06T02:19:30;6.45;;;4.65;;
23747;SDS011;12054;53.662;10.126;2023-04-06T02:21:56;7.18;;;5.22;;
23747;SDS011;12054;53.662;10.126;2023-04-06T02:24:21;9.27;;;5.00;;
23747;SDS011;12054;53.662;10.126;2023-04-06T02:26:47;8.73;;;5.05;;
23747;SDS011;12054;53.662;10.126;2023-04-06T02:29:12;6.90;;;4.95;;
23747;SDS011;12054;53.662;10.126;2023-04-06T02:31:38;8.07;;;5.47;;
23747;SDS011;12054;53.662;10.126;2023-04-06T02:34:03;5.68;;;4.25;;
23747;SDS011;12054;53.662;10.126;2023-04-06T02:36:29;6.32;;;4.75;;
23747;SDS011;12054;53.662;10.126;2023-04-06T02:38:55;7.32;;;4.40;;
23747;SDS011;12054;53.662;10.126;2023-04-06T02:41:20;7.00;;;4.18;;
23747;SDS011;12054;53.662;10.126;2023-04-06T02:43:46;5.25;;;4.30;;
23747;SDS011;12054;53.662;10.126;2023-04-06T02:46:11;7.60;;;4.53;;
23747;SDS011;12054;53.662;10.126;2023-04-06T02:48:37;6.07;;;4.35;;
23747;SDS011;12054;53.662;10.126;2023-04-06T02:51:02;7.80;;;4.32;;
23747;SDS011;12054;53.662;10.126;2023-04-06T02:53:28;5.90;;;4.18;;
23747;SDS011;12054;53.662;10.126;2023-04-06T02:55:53;7.85;;;4.68;;
23747;SDS011;12054;53.662;10.126;2023-04-06T02:58:20;8.68;;;4.22;;
23747;SDS011;12054;53.662;10.126;2023-04-06T03:00:46;6.22;;;4.15;;
23747;SDS011;12054;53.662;10.126;2023-04-06T03:03:11;6.07;;;4.10;;
23747;SDS011;12054;53.662;10.126;2023-04-06T03:05:37;6.95;;;4.32;;
23747;SDS011;12054;53.662;10.126;2023-04-06T03:08:02;7.25;;;4.57;;
23747;SDS011;12054;53.662;10.126;2023-04-06T03:10:28;6.00;;;3.97;;
23747;SDS011;12054;53.662;10.126;2023-04-06T03:12:53;7.25;;;4.05;;
23747;SDS011;12054;53.662;10.126;2023-04-06T03:15:20;7.57;;;4.47;;
23747;SDS011;12054;53.662;10.126;2023-04-06T03:17:45;8.95;;;4.57;;
23747;SDS011;12054;53.662;10.126;2023-04-06T03:20:11;5.88;;;4.25;;
23747;SDS011;12054;53.662;10.126;2023-04-06T03:22:36;7.15;;;4.60;;
23747;SDS011;12054;53.662;10.126;2023-04-06T03:25:02;7.55;;;4.55;;
23747;SDS011;12054;53.662;10.126;2023-04-06T03:27:28;6.63;;;4.97;;
23747;SDS011;12054;53.662;10.126;2023-04-06T03:29:53;8.27;;;4.80;;
23747;SDS011;12054;53.662;10.126;2023-04-06T03:32:19;7.75;;;4.55;;
23747;SDS011;12054;53.662;10.126;2023-04-06T03:34:45;7.53;;;4.63;;
23747;SDS011;12054;53.662;10.126;2023-04-06T03:37:10;8.65;;;4.47;;
23747;SDS011;12054;53.662;10.126;2023-04-06T03:39:36;6.13;;;4.53;;
23747;SDS011;12054;53.662;10.126;2023-04-06T03:42:01;6.57;;;5.07;;
23747;SDS011;12054;53.662;10.126;2023-04-06T03:44:27;7.63;;;4.75;;
23747;SDS011;12054;53.662;10.126;2023-04-06T03:46:52;8.77;;;5.00;;
23747;SDS011;12054;53.662;10.126;2023-04-06T03:49:18;9.70;;;5.03;;
23747;SDS011;12054;53.662;10.126;2023-04-06T03:51:43;6.63;;;4.70;;
23747;SDS011;12054;53.662;10.126;2023-04-06T03:54:09;8.68;;;5.43;;
23747;SDS011;12054;53.662;10.126;2023-04-06T03:56:34;8.43;;;5.22;;
23747;SDS011;12054;53.662;10.126;2023-04-06T03:59:00;8.05;;;5.00;;
23747;SDS011;12054;53.662;10.126;2023-04-06T04:01:26;6.95;;;4.50;;
23747;SDS011;12054;53.662;10.126;2023-04-06T04:03:52;6.55;;;4.45;;
23747;SDS011;12054;53.662;10.126;2023-04-06T04:06:18;6.70;;;4.57;;
23747;SDS011;12054;53.662;10.126;2023-04-06T04:08:44;7.10;;;5.10;;
23747;SDS011;12054;53.662;10.126;2023-04-06T04:11:09;7.47;;;5.10;;
23747;SDS011;12054;53.662;10.126;2023-04-06T04:13:35;7.30;;;4.93;;
23747;SDS011;12054;53.662;10.126;2023-04-06T04:16:00;8.45;;;5.07;;
23747;SDS011;12054;53.662;10.126;2023-04-06T04:18:26;7.60;;;4.90;;
23747;SDS011;12054;53.662;10.126;2023-04-06T04:20:51;6.82;;;4.78;;
23747;SDS011;12054;53.662;10.126;2023-04-06T04:23:17;6.78;;;4.80;;
23747;SDS011;12054;53.662;10.126;2023-04-06T04:25:43;7.70;;;5.45;;
23747;SDS011;12054;53.662;10.126;2023-04-06T04:28:08;8.20;;;5.38;;
23747;SDS011;12054;53.662;10.126;2023-04-06T04:30:34;7.60;;;4.90;;
23747;SDS011;12054;53.662;10.126;2023-04-06T04:33:00;8.80;;;5.20;;
23747;SDS011;12054;53.662;10.126;2023-04-06T04:35:26;8.32;;;5.40;;
23747;SDS011;12054;53.662;10.126;2023-04-06T04:37:52;8.27;;;4.85;;
23747;SDS011;12054;53.662;10.126;2023-04-06T04:40:17;8.32;;;5.22;;
23747;SDS011;12054;53.662;10.126;2023-04-06T04:42:43;11.70;;;5.85;;
23747;SDS011;12054;53.662;10.126;2023-04-06T04:45:08;8.52;;;5.40;;
23747;SDS011;12054;53.662;10.126;2023-04-06T04:47:34;9.02;;;5.38;;
23747;SDS011;12054;53.662;10.126;2023-04-06T04:50:00;9.55;;;5.65;;
23747;SDS011;12054;53.662;10.126;2023-04-06T04:52:25;7.60;;;4.70;;
23747;SDS011;12054;53.662;10.126;2023-04-06T04:54:51;9.63;;;5.30;;
23747;SDS011;12054;53.662;10.126;2023-04-06T04:57:16;7.53;;;5.30;;
23747;SDS011;12054;53.662;10.126;2023-04-06T04:59:42;7.90;;;5.47;;
23747;SDS011;12054;53.662;10.126;2023-04-06T05:02:08;8.95;;;5.50;;
23747;SDS011;12054;53.662;10.126;2023-04-06T05:04:33;9.23;;;5.32;;
23747;SDS011;12054;53.662;10.126;2023-04-06T05:07:05;7.95;;;5.72;;
23747;SDS011;12054;53.662;10.126;2023-04-06T05:09:32;9.00;;;5.60;;
23747;SDS011;12054;53.662;10.126;2023-04-06T05:11:58;9.88;;;5.63;;
23747;SDS011;12054;53.662;10.126;2023-04-06T05:14:25;10.50;;;5.80;;
23747;SDS011;12054;53.662;10.126;2023-04-06T05:16:51;7.32;;;5.13;;
23747;SDS011;12054;53.662;10.126;2023-04-06T05:19:17;9.05;;;6.03;;
23747;SDS011;12054;53.662;10.126;2023-04-06T05:21:42;8.90;;;5.95;;
23747;SDS011;12054;53.662;10.126;2023-04-06T05:24:08;10.27;;;6.50;;
23747;SDS011;12054;53.662;10.126;2023-04-06T05:26:33;11.75;;;6.45;;
23747;SDS011;12054;53.662;10.126;2023-04-06T05:28:59;9.55;;;5.55;;
23747;SDS011;12054;53.662;10.126;2023-04-06T05:31:25;13.15;;;6.57;;
23747;SDS011;12054;53.662;10.126;2023-04-06T05:33:51;12.88;;;7.28;;
23747;SDS011;12054;53.662;10.126;2023-04-06T05:36:16;11.07;;;6.60;;
23747;SDS011;12054;53.662;10.126;2023-04-06T05:38:42;11.82;;;7.07;;
23747;SDS011;12054;53.662;10.126;2023-04-06T05:41:07;10.60;;;7.03;;
23747;SDS011;12054;53.662;10.126;2023-04-06T05:43:33;10.05;;;6.60;;
23747;SDS011;12054;53.662;10.126;2023-04-06T05:45:58;11.75;;;7.00;;
23747;SDS011;12054;53.662;10.126;2023-04-06T05:48:24;11.05;;;7.18;;
23747;SDS011;12054;53.662;10.126;2023-04-06T05:50:50;12.10;;;7.60;;
23747;SDS011;12054;53.662;10.126;2023-04-06T05:53:15;11.93;;;7.95;;
23747;SDS011;12054;53.662;10.126;2023-04-06T05:55:41;10.65;;;6.95;;
23747;SDS011;12054;53.662;10.126;2023-04-06T05:58:06;12.52;;;7.47;;
23747;SDS011;12054;53.662;10.126;2023-04-06T06:00:32;14.30;;;7.70;;
23747;SDS011;12054;53.662;10.126;2023-04-06T06:02:58;13.07;;;8.15;;
23747;SDS011;12054;53.662;10.126;2023-04-06T06:05:23;15.77;;;8.57;;
23747;SDS011;12054;53.662;10.126;2023-04-06T06:07:49;14.02;;;7.95;;
23747;SDS011;12054;53.662;10.126;2023-04-06T06:10:15;12.80;;;7.40;;
23747;SDS011;12054;53.662;10.126;2023-04-06T06:12:40;12.02;;;7.57;;
23747;SDS011;12054;53.662;10.126;2023-04-06T06:15:06;12.93;;;7.60;;
23747;SDS011;12054;53.662;10.126;2023-04-06T06:17:32;13.05;;;8.25;;
23747;SDS011;12054;53.662;10.126;2023-04-06T06:19:57;12.98;;;7.93;;
23747;SDS011;12054;53.662;10.126;2023-04-06T06:22:23;13.48;;;7.78;;
23747;SDS011;12054;53.662;10.126;2023-04-06T06:24:48;11.80;;;8.13;;
23747;SDS011;12054;53.662;10.126;2023-04-06T06:27:15;12.20;;;7.80;;
23747;SDS011;12054;53.662;10.126;2023-04-06T06:29:40;10.80;;;7.40;;
23747;SDS011;12054;53.662;10.126;2023-04-06T06:32:06;11.57;;;7.70;;
23747;SDS011;12054;53.662;10.126;2023-04-06T06:34:34;12.80;;;8.40;;
23747;SDS011;12054;53.662;10.126;2023-04-06T06:37:00;11.88;;;8.80;;
23747;SDS011;12054;53.662;10.126;2023-04-06T06:39:27;13.05;;;8.65;;
23747;SDS011;12054;53.662;10.126;2023-04-06T06:41:52;12.38;;;8.88;;
23747;SDS011;12054;53.662;10.126;2023-04-06T06:44:19;13.48;;;8.88;;
23747;SDS011;12054;53.662;10.126;2023-04-06T06:46:46;12.23;;;8.85;;
23747;SDS011;12054;53.662;10.126;2023-04-06T06:49:12;12.60;;;9.35;;
23747;SDS011;12054;53.662;10.126;2023-04-06T06:51:39;11.48;;;8.13;;
23747;SDS011;12054;53.662;10.126;2023-04-06T06:54:05;12.10;;;8.40;;
23747;SDS011;12054;53.662;10.126;2023-04-06T06:56:31;10.40;;;8.50;;
23747;SDS011;12054;53.662;10.126;2023-04-06T06:58:56;10.82;;;7.28;;
23747;SDS011;12054;53.662;10.126;2023-04-06T07:01:22;10.32;;;7.38;;
23747;SDS011;12054;53.662;10.126;2023-04-06T07:03:47;11.02;;;7.22;;
23747;SDS011;12054;53.662;10.126;2023-04-06T07:06:13;10.38;;;7.30;;
23747;SDS011;12054;53.662;10.126;2023-04-06T07:08:38;9.65;;;6.47;;
23747;SDS011;12054;53.662;10.126;2023-04-06T07:11:04;9.63;;;6.72;;
23747;SDS011;12054;53.662;10.126;2023-04-06T07:13:29;10.63;;;6.30;;
23747;SDS011;12054;53.662;10.126;2023-04-06T07:15:55;8.40;;;5.57;;
23747;SDS011;12054;53.662;10.126;2023-04-06T07:18:22;9.55;;;6.10;;
23747;SDS011;12054;53.662;10.126;2023-04-06T07:20:48;8.35;;;5.85;;
23747;SDS011;12054;53.662;10.126;2023-04-06T07:23:13;8.45;;;5.93;;
23747;SDS011;12054;53.662;10.126;2023-04-06T07:25:39;7.45;;;5.57;;
23747;SDS011;12054;53.662;10.126;2023-04-06T07:28:04;7.68;;;5.35;;
23747;SDS011;12054;53.662;10.126;2023-04-06T07:30:30;8.57;;;5.55;;
23747;SDS011;12054;53.662;10.126;2023-04-06T07:32:56;9.35;;;5.30;;
23747;SDS011;12054;53.662;10.126;2023-04-06T07:35:25;7.57;;;5.45;;
23747;SDS011;12054;53.662;10.126;2023-04-06T07:37:51;7.32;;;5.32;;
23747;SDS011;12054;53.662;10.126;2023-04-06T07:40:20;8.05;;;4.65;;
23747;SDS011;12054;53.662;10.126;2023-04-06T07:42:46;7.65;;;5.47;;
23747;SDS011;12054;53.662;10.126;2023-04-06T07:45:12;7.25;;;5.10;;
23747;SDS011;12054;53.662;10.126;2023-04-06T07:47:38;8.70;;;5.65;;
23747;SDS011;12054;53.662;10.126;2023-04-06T07:50:05;6.95;;;4.70;;
23747;SDS011;12054;53.662;10.126;2023-04-06T07:52:32;7.35;;;5.20;;
23747;SDS011;12054;53.662;10.126;2023-04-06T07:54:58;6.65;;;4.95;;
23747;SDS011;12054;53.662;10.126;2023-04-06T07:57:24;7.28;;;4.50;;
23747;SDS011;12054;53.662;10.126;2023-04-06T07:59:55;6.35;;;4.18;;
23747;SDS011;12054;53.662;10.126;2023-04-06T08:02:23;8.10;;;5.30;;
23747;SDS011;12054;53.662;10.126;2023-04-06T08:04:49;6.25;;;4.57;;
23747;SDS011;12054;53.662;10.126;2023-04-06T08:07:15;7.55;;;5.00;;
23747;SDS011;12054;53.662;10.126;2023-04-06T08:09:40;5.47;;;4.13;;
23747;SDS011;12054;53.662;10.126;2023-04-06T08:12:06;6.65;;;3.97;;
23747;SDS011;12054;53.662;10.126;2023-04-06T08:14:31;6.45;;;4.05;;
23747;SDS011;12054;53.662;10.126;2023-04-06T08:16:57;6.13;;;4.53;;
23747;SDS011;12054;53.662;10.126;2023-04-06T08:19:22;4.80;;;3.60;;
23747;SDS011;12054;53.662;10.126;2023-04-06T08:21:48;5.15;;;3.80;;
23747;SDS011;12054;53.662;10.126;2023-04-06T08:24:14;6.63;;;3.38;;
23747;SDS011;12054;53.662;10.126;2023-04-06T08:26:40;4.72;;;3.42;;
23747;SDS011;12054;53.662;10.126;2023-04-06T08:29:05;8.32;;;3.38;;
23747;SDS011;12054;53.662;10.126;2023-04-06T08:31:32;5.95;;;3.47;;
23747;SDS011;12054;53.662;10.126;2023-04-06T08:34:01;5.15;;;3.75;;
23747;SDS011;12054;53.662;10.126;2023-04-06T08:36:30;6.00;;;3.85;;
23747;SDS011;12054;53.662;10.126;2023-04-06T08:38:56;5.78;;;3.38;;
23747;SDS011;12054;53.662;10.126;2023-04-06T08:41:22;5.55;;;3.42;;
23747;SDS011;12054;53.662;10.126;2023-04-06T08:44:00;6.65;;;3.85;;
23747;SDS011;12054;53.662;10.126;2023-04-06T08:46:28;5.28;;;3.47;;
23747;SDS011;12054;53.662;10.126;2023-04-06T08:48:59;6.22;;;3.55;;
23747;SDS011;12054;53.662;10.126;2023-04-06T08:51:26;7.85;;;4.35;;
23747;SDS011;12054;53.662;10.126;2023-04-06T08:53:56;7.65;;;3.45;;
23747;SDS011;12054;53.662;10.126;2023-04-06T08:56:23;7.75;;;3.70;;
23747;SDS011;12054;53.662;10.126;2023-04-06T08:58:51;5.75;;;3.78;;
23747;SDS011;12054;53.662;10.126;2023-04-06T09:01:20;6.22;;;4.25;;
23747;SDS011;12054;53.662;10.126;2023-04-06T09:03:48;6.35;;;3.38;;
23747;SDS011;12054;53.662;10.126;2023-04-06T09:06:14;5.82;;;3.92;;
23747;SDS011;12054;53.662;10.126;2023-04-06T09:08:40;5.63;;;3.08;;
23747;SDS011;12054;53.662;10.126;2023-04-06T09:11:07;5.50;;;3.55;;
23747;SDS011;12054;53.662;10.126;2023-04-06T09:13:46;8.77;;;4.18;;
23747;SDS011;12054;53.662;10.126;2023-04-06T09:16:13;5.90;;;4.05;;
23747;SDS011;12054;53.662;10.126;2023-04-06T09:18:39;7.85;;;3.50;;
23747;SDS011;12054;53.662;10.126;2023-04-06T09:21:05;6.75;;;2.85;;
23747;SDS011;12054;53.662;10.126;2023-04-06T09:23:32;5.72;;;3.70;;
23747;SDS011;12054;53.662;10.126;2023-04-06T09:26:11;6.03;;;3.40;;
23747;SDS011;12054;53.662;10.126;2023-04-06T09:28:42;6.78;;;3.45;;
23747;SDS011;12054;53.662;10.126;2023-04-06T09:31:15;4.82;;;2.60;;
23747;SDS011;12054;53.662;10.126;2023-04-06T09:33:46;4.95;;;2.92;;
23747;SDS011;12054;53.662;10.126;2023-04-06T09:36:11;4.45;;;3.17;;
23747;SDS011;12054;53.662;10.126;2023-04-06T09:38:38;5.38;;;3.33;;
23747;SDS011;12054;53.662;10.126;2023-04-06T09:41:20;3.72;;;2.63;;
23747;SDS011;12054;53.662;10.126;2023-04-06T09:44:06;4.53;;;2.63;;
23747;SDS011;12054;53.662;10.126;2023-04-06T09:46:37;5.28;;;3.40;;
23747;SDS011;12054;53.662;10.126;2023-04-06T09:49:04;4.28;;;3.50;;
23747;SDS011;12054;53.662;10.126;2023-04-06T09:54:29;6.28;;;4.00;;
23747;SDS011;12054;53.662;10.126;2023-04-06T09:59:44;5.28;;;3.80;;
23747;SDS011;12054;53.662;10.126;2023-04-06T10:02:39;3.90;;;2.85;;
23747;SDS011;12054;53.662;10.126;2023-04-06T10:05:32;5.43;;;3.88;;
23747;SDS011;12054;53.662;10.126;2023-04-06T10:08:00;6.40;;;3.30;;
23747;SDS011;12054;53.662;10.126;2023-04-06T10:10:30;7.00;;;3.92;;
23747;SDS011;12054;53.662;10.126;2023-04-06T10:12:56;5.65;;;3.17;;
23747;SDS011;12054;53.662;10.126;2023-04-06T10:15:22;5.38;;;3.75;;
23747;SDS011;12054;53.662;10.126;2023-04-06T10:17:49;5.72;;;3.70;;
23747;SDS011;12054;53.662;10.126;2023-04-06T10:20:17;6.25;;;4.22;;
23747;SDS011;12054;53.662;10.126;2023-04-06T10:23:04;6.75;;;4.38;;
23747;SDS011;12054;53.662;10.126;2023-04-06T10:25:51;6.03;;;4.40;;
23747;SDS011;12054;53.662;10.126;2023-04-06T10:28:20;5.63;;;4.07;;
23747;SDS011;12054;53.662;10.126;2023-04-06T10:30:46;5.75;;;4.40;;
23747;SDS011;12054;53.662;10.126;2023-04-06T10:33:19;7.32;;;4.32;;
23747;SDS011;12054;53.662;10.126;2023-04-06T10:35:45;5.75;;;3.58;;
23747;SDS011;12054;53.662;10.126;2023-04-06T10:38:11;6.72;;;3.55;;
23747;SDS011;12054;53.662;10.126;2023-04-06T10:40:39;6.63;;;4.00;;
23747;SDS011;12054;53.662;10.126;2023-04-06T10:43:12;5.18;;;3.72;;
23747;SDS011;12054;53.662;10.126;2023-04-06T10:45:43;4.38;;;3.92;;
23747;SDS011;12054;53.662;10.126;2023-04-06T10:48:16;4.97;;;4.05;;
23747;SDS011;12054;53.662;10.126;2023-04-06T10:50:47;5.22;;;4.20;;
23747;SDS011;12054;53.662;10.126;2023-04-06T10:53:23;5.63;;;4.18;;
23747;SDS011;12054;53.662;10.126;2023-04-06T10:55:51;5.47;;;3.55;;
23747;SDS011;12054;53.662;10.126;2023-04-06T10:58:18;6.45;;;4.65;;
23747;SDS011;12054;53.662;10.126;2023-04-06T11:00:47;6.00;;;4.35;;
23747;SDS011;12054;53.662;10.126;2023-04-06T11:03:13;8.85;;;5.05;;
23747;SDS011;12054;53.662;10.126;2023-04-06T11:05:43;6.97;;;4.50;;
23747;SDS011;12054;53.662;10.126;2023-04-06T11:08:10;8.48;;;4.88;;
23747;SDS011;12054;53.662;10.126;2023-04-06T11:10:46;8.13;;;4.70;;
23747;SDS011;12054;53.662;10.126;2023-04-06T11:13:14;7.82;;;4.32;;
23747;SDS011;12054;53.662;10.126;2023-04-06T11:15:39;8.32;;;4.57;;
23747;SDS011;12054;53.662;10.126;2023-04-06T11:18:07;7.63;;;5.07;;
23747;SDS011;12054;53.662;10.126;2023-04-06T11:20:32;6.90;;;5.07;;
23747;SDS011;12054;53.662;10.126;2023-04-06T11:22:58;8.80;;;6.10;;
23747;SDS011;12054;53.662;10.126;2023-04-06T11:25:24;7.93;;;6.03;;
23747;SDS011;12054;53.662;10.126;2023-04-06T11:27:56;7.95;;;5.40;;
23747;SDS011;12054;53.662;10.126;2023-04-06T11:30:21;8.60;;;5.30;;
23747;SDS011;12054;53.662;10.126;2023-04-06T11:32:47;8.40;;;5.38;;
23747;SDS011;12054;53.662;10.126;2023-04-06T11:35:19;7.47;;;5.07;;
23747;SDS011;12054;53.662;10.126;2023-04-06T11:37:46;8.63;;;5.97;;
23747;SDS011;12054;53.662;10.126;2023-04-06T11:40:13;9.02;;;6.03;;
23747;SDS011;12054;53.662;10.126;2023-04-06T11:42:38;10.07;;;6.05;;
23747;SDS011;12054;53.662;10.126;2023-04-06T11:45:04;7.53;;;5.18;;
23747;SDS011;12054;53.662;10.126;2023-04-06T11:47:33;11.57;;;7.40;;
23747;SDS011;12054;53.662;10.126;2023-04-06T11:50:13;11.40;;;6.28;;
23747;SDS011;12054;53.662;10.126;2023-04-06T11:52:42;10.02;;;6.47;;
23747;SDS011;12054;53.662;10.126;2023-04-06T11:55:17;8.85;;;6.22;;
23747;SDS011;12054;53.662;10.126;2023-04-06T11:57:43;12.57;;;6.95;;
23747;SDS011;12054;53.662;10.126;2023-04-06T12:00:10;10.43;;;7.65;;
23747;SDS011;12054;53.662;10.126;2023-04-06T12:02:37;9.57;;;6.55;;
23747;SDS011;12054;53.662;10.126;2023-04-06T12:05:03;11.55;;;6.80;;
23747;SDS011;12054;53.662;10.126;2023-04-06T12:07:30;9.45;;;6.50;;
23747;SDS011;12054;53.662;10.126;2023-04-06T12:09:55;8.00;;;6.10;;
23747;SDS011;12054;53.662;10.126;2023-04-06T12:12:21;10.27;;;7.00;;
23747;SDS011;12054;53.662;10.126;2023-04-06T12:14:46;10.50;;;6.72;;
23747;SDS011;12054;53.662;10.126;2023-04-06T12:17:12;8.90;;;6.55;;
23747;SDS011;12054;53.662;10.126;2023-04-06T12:19:37;10.52;;;6.13;;
23747;SDS011;12054;53.662;10.126;2023-04-06T12:22:03;12.45;;;6.95;;
23747;SDS011;12054;53.662;10.126;2023-04-06T12:24:28;10.18;;;7.18;;
23747;SDS011;12054;53.662;10.126;2023-04-06T12:26:54;9.30;;;6.47;;
23747;SDS011;12054;53.662;10.126;2023-04-06T12:29:20;11.55;;;5.60;;
23747;SDS011;12054;53.662;10.126;2023-04-06T12:31:45;10.80;;;6.30;;
23747;SDS011;12054;53.662;10.126;2023-04-06T12:34:11;8.70;;;5.22;;
23747;SDS011;12054;53.662;10.126;2023-04-06T12:36:37;9.27;;;7.25;;
23747;SDS011;12054;53.662;10.126;2023-04-06T12:39:04;9.70;;;7.63;;
23747;SDS011;12054;53.662;10.126;2023-04-06T12:41:30;9.05;;;6.45;;
23747;SDS011;12054;53.662;10.126;2023-04-06T12:43:55;9.50;;;5.93;;
23747;SDS011;12054;53.662;10.126;2023-04-06T12:46:21;9.38;;;5.82;;
23747;SDS011;12054;53.662;10.126;2023-04-06T12:48:47;8.63;;;5.45;;
23747;SDS011;12054;53.662;10.126;2023-04-06T12:51:13;9.93;;;6.03;;
23747;SDS011;12054;53.662;10.126;2023-04-06T12:53:38;8.80;;;6.38;;
23747;SDS011;12054;53.662;10.126;2023-04-06T12:56:14;8.20;;;5.35;;
23747;SDS011;12054;53.662;10.126;2023-04-06T12:58:45;7.45;;;5.88;;
23747;SDS011;12054;53.662;10.126;2023-04-06T13:01:11;8.57;;;6.43;;
23747;SDS011;12054;53.662;10.126;2023-04-06T13:03:37;9.93;;;6.38;;
23747;SDS011;12054;53.662;10.126;2023-04-06T13:06:03;7.15;;;5.82;;
23747;SDS011;12054;53.662;10.126;2023-04-06T13:08:29;9.57;;;6.88;;
23747;SDS011;12054;53.662;10.126;2023-04-06T13:10:55;10.07;;;6.10;;
23747;SDS011;12054;53.662;10.126;2023-04-06T13:13:25;8.73;;;6.38;;
23747;SDS011;12054;53.662;10.126;2023-04-06T13:15:52;8.80;;;6.60;;
23747;SDS011;12054;53.662;10.126;2023-04-06T13:18:20;7.97;;;6.75;;
23747;SDS011;12054;53.662;10.126;2023-04-06T13:20:48;8.73;;;6.80;;
23747;SDS011;12054;53.662;10.126;2023-04-06T13:23:14;7.65;;;5.78;;
23747;SDS011;12054;53.662;10.126;2023-04-06T13:25:40;8.70;;;6.13;;
23747;SDS011;12054;53.662;10.126;2023-04-06T13:28:06;8.65;;;6.25;;
23747;SDS011;12054;53.662;10.126;2023-04-06T13:30:32;8.27;;;6.47;;
23747;SDS011;12054;53.662;10.126;2023-04-06T13:32:58;9.50;;;7.33;;
23747;SDS011;12054;53.662;10.126;2023-04-06T13:35:23;9.55;;;6.45;;
23747;SDS011;12054;53.662;10.126;2023-04-06T13:37:49;9.18;;;6.63;;
23747;SDS011;12054;53.662;10.126;2023-04-06T13:40:17;9.57;;;5.93;;
23747;SDS011;12054;53.662;10.126;2023-04-06T13:42:43;10.18;;;6.10;;
23747;SDS011;12054;53.662;10.126;2023-04-06T13:45:10;9.32;;;6.30;;
23747;SDS011;12054;53.662;10.126;2023-04-06T13:47:36;8.73;;;6.18;;
23747;SDS011;12054;53.662;10.126;2023-04-06T13:50:01;10.00;;;6.80;;
23747;SDS011;12054;53.662;10.126;2023-04-06T13:52:28;8.85;;;5.38;;
23747;SDS011;12054;53.662;10.126;2023-04-06T13:54:54;7.78;;;6.38;;
23747;SDS011;12054;53.662;10.126;2023-04-06T13:57:19;10.75;;;5.90;;
23747;SDS011;12054;53.662;10.126;2023-04-06T13:59:45;10.38;;;6.70;;
23747;SDS011;12054;53.662;10.126;2023-04-06T14:02:11;7.95;;;6.70;;
23747;SDS011;12054;53.662;10.126;2023-04-06T14:04:37;9.50;;;6.40;;
23747;SDS011;12054;53.662;10.126;2023-04-06T14:07:03;10.70;;;6.70;;
23747;SDS011;12054;53.662;10.126;2023-04-06T14:09:29;9.30;;;7.07;;
23747;SDS011;12054;53.662;10.126;2023-04-06T14:11:55;8.40;;;6.93;;
23747;SDS011;12054;53.662;10.126;2023-04-06T14:14:21;9.02;;;7.15;;
23747;SDS011;12054;53.662;10.126;2023-04-06T14:16:47;10.70;;;7.18;;
23747;SDS011;12054;53.662;10.126;2023-04-06T14:19:14;9.80;;;6.47;;
23747;SDS011;12054;53.662;10.126;2023-04-06T14:21:41;11.13;;;7.87;;
23747;SDS011;12054;53.662;10.126;2023-04-06T14:24:07;9.35;;;7.47;;
23747;SDS011;12054;53.662;10.126;2023-04-06T14:26:34;9.25;;;7.00;;
23747;SDS011;12054;53.662;10.126;2023-04-06T14:29:00;9.15;;;7.40;;
23747;SDS011;12054;53.662;10.126;2023-04-06T14:31:26;12.70;;;6.82;;
23747;SDS011;12054;53.662;10.126;2023-04-06T14:33:52;10.52;;;7.28;;